In Rescue
 
Open Full Screen Window  High Contrast Mode
Wind Gusting 00 knots
05
March 19, 2019 7:19 PM EDT
Weather Information
Wind Direction
  230 °
Wind Speed
  05 kt (6 mph)
Wind Gust
  00 kt (0 mph)
Altimeter
30.30 in
Visibility
10 SM
Temperature
06° C
43° F
Dewpoint
-06° C
21° F
Humidity
42%
1hr Rain Fall
00.00 in.
24hr Rain Fall
00.00 in.
Sky Condition
Clear
VFR

METAR KJYM 192319Z AUTO 23005KT 10SM CLR 06/M06 A3030 RMK AO2 T00571056

FAA Disclaimer: The data displayed is for advisory purposes only and is not to be used for flight planning or operations.